Var ligger Templo de Diana i Portugal?

 

Templo de Diana ligger i regionen Evora i Portugal!

Sök efter namnet på en stad:

Templo de los Guerreros, Tempane, Templeoran, Temperance Hall, Templanza

Här finner du plats för Templo de Diana på en karta.
För att se hur det för närvarande ser ut, nedan är några bilder av området med online webbkameror.
Du kan också hitta avståndet till de viktigaste städerna i regionen och till städer i övriga Portugal.

Alla platser i världen som heter .


Var ligger Templo de Diana på kartan?




Webcams nära Templo de Diana

Ponte de Sôr › North-East.


Ponte de Sôr › North-East - Dagtid
Aktuell
Ponte de Sôr › North-East - Aktuell

Vasco Carão › South: Garrocheira, Benavente − Airport.


Vasco Carão › South: Garrocheira, Benavente − Airport - Dagtid
Aktuell
Vasco Carão › South: Garrocheira, Benavente − Airport - Aktuell

Benavente › North-East: AIrport, METAR: BENAV 180005Z 36004KT 17/14 Q1015.


Benavente › North-East: AIrport, METAR: BENAV 180005Z 36004KT 17/14 Q1015 - Dagtid
Aktuell
Benavente › North-East: AIrport, METAR: BENAV 180005Z 36004KT 17/14 Q1015 - Aktuell

Webcams provided by webcams.travel


Avstånd

Var är Templo de Diana i förhållande till andra platser?

Topp 10 städer i Evora och avstånd från Templo de Diana.

Stad#Befolkningkmmiles
Évora14585121
Montemor-o-Novo2128542717
Vendas Novas3112485031
Estremoz493494226
Reguengos de Monsaraz572173723
Redondo658453220
Vila Viçosa754844830
Borba845864729
Adaval9-2616
Agua d' Alte10-3220

Topp 10 städer i Portugal och avstånd från Templo de Diana.

Stad # Befolkningkmmiles
Lisbon151779810867
Porto2249630293182
Amadora317885611773
Braga4121393335208
Setúbal51171098754
Coimbra6106580187116
Queluz710339811974
Funchal8980411046650
Vila Nova de Gaia970810291181
Loures106623011370



Info

Statistik och Geografi

Portugal består av 15299 städer i 20 regioner.

Regionen Evora har 425 städer.

Var ligger Templo de Diana i Portugal?